Time;durP1;ratioP1;P1;durP2;ratioP2;P2;SDS_P1;SDS_P2;PMS_P1;PMS_P2;Temp;Humidity;BMP_temperature;BMP_pressure;BME280_temperature;BME280_humidity;BME280_pressure;Samples;Min_cycle;Max_cycle;Signal;HPM_P1;HPM_P2
2022/04/24 00:00:06;;;;;;;10.27;6.97;;;9.90;99.90;;;;;;5117115;28;20043;-77
2022/04/24 00:02:33;;;;;;;6.93;5.88;;;9.90;99.90;;;;;;5115560;28;20135;-77
2022/04/24 00:04:59;;;;;;;10.45;6.78;;;9.80;99.90;;;;;;5116037;28;20058;-78
2022/04/24 00:07:25;;;;;;;7.55;6.75;;;9.80;99.90;;;;;;5115673;28;20156;-77
2022/04/24 00:09:51;;;;;;;7.10;5.75;;;9.80;99.90;;;;;;5115199;28;20104;-77
2022/04/24 00:12:17;;;;;;;7.28;5.60;;;9.80;99.90;;;;;;5117077;28;20043;-76
2022/04/24 00:14:47;;;;;;;11.23;6.22;;;9.70;99.90;;;;;;5113634;27;20551;-77
2022/04/24 00:17:16;;;;;;;7.13;6.03;;;9.60;99.90;;;;;;5136668;27;20555;-77
2022/04/24 00:19:42;;;;;;;10.82;6.47;;;9.60;99.90;;;;;;5137488;27;20049;-77
2022/04/24 00:22:09;;;;;;;7.00;5.75;;;9.60;99.90;;;;;;5136352;27;20047;-77
2022/04/24 00:24:35;;;;;;;8.70;5.97;;;9.50;99.90;;;;;;5135380;27;20053;-77
2022/04/24 00:27:01;;;;;;;7.95;5.38;;;9.50;99.90;;;;;;5137320;27;20131;-77
2022/04/24 00:29:27;;;;;;;9.02;6.30;;;9.50;99.90;;;;;;5137301;27;20078;-77
2022/04/24 00:31:52;;;;;;;7.22;5.53;;;9.50;99.90;;;;;;5134490;27;20043;-76
2022/04/24 00:34:18;;;;;;;7.53;5.82;;;9.50;99.90;;;;;;5135861;27;20047;-77
2022/04/24 00:36:45;;;;;;;9.68;5.25;;;9.50;99.90;;;;;;5137174;27;20126;-77
2022/04/24 00:39:12;;;;;;;7.55;6.07;;;9.40;99.90;;;;;;5135247;27;20062;-77
2022/04/24 00:41:46;;;;;;;11.10;5.50;;;9.40;99.90;;;;;;5135681;27;20055;-77
2022/04/24 00:44:12;;;;;;;8.80;5.68;;;9.40;99.90;;;;;;5136042;27;20047;-77
2022/04/24 00:46:53;;;;;;;8.80;5.80;;;9.30;99.90;;;;;;5136253;27;20551;-78
2022/04/24 00:49:19;;;;;;;8.13;5.65;;;9.30;99.90;;;;;;5135109;27;20486;-77
2022/04/24 00:51:45;;;;;;;7.63;5.80;;;9.20;99.90;;;;;;5135961;27;20093;-77
2022/04/24 00:54:12;;;;;;;10.88;5.40;;;9.20;99.90;;;;;;5136994;27;20046;-77
2022/04/24 00:56:39;;;;;;;8.43;6.00;;;9.20;99.90;;;;;;5136745;27;20039;-77
2022/04/24 00:59:07;;;;;;;7.07;6.38;;;9.20;99.90;;;;;;5134977;27;20073;-77
2022/04/24 01:01:34;;;;;;;8.63;5.22;;;9.10;99.90;;;;;;5136793;27;20047;-77
2022/04/24 01:04:02;;;;;;;9.60;6.50;;;9.10;99.90;;;;;;5135906;27;20039;-77
2022/04/24 01:06:31;;;;;;;9.82;6.05;;;9.10;99.90;;;;;;5134597;27;20083;-77
2022/04/24 01:09:17;;;;;;;7.95;5.60;;;9.00;99.90;;;;;;5117008;27;20031;-77
2022/04/24 01:11:45;;;;;;;7.55;5.43;;;9.00;99.90;;;;;;5115913;28;20138;-77
2022/04/24 01:14:11;;;;;;;8.23;6.00;;;9.00;99.90;;;;;;5113863;28;20044;-77
2022/04/24 01:16:37;;;;;;;12.20;5.32;;;9.00;99.90;;;;;;5116050;28;20041;-76
2022/04/24 01:19:04;;;;;;;10.70;6.45;;;8.90;99.90;;;;;;5115902;28;20548;-77
2022/04/24 01:21:31;;;;;;;8.73;5.93;;;8.90;99.90;;;;;;5115621;27;20097;-77
2022/04/24 01:23:57;;;;;;;5.32;4.82;;;8.90;99.90;;;;;;5115674;28;20069;-77
2022/04/24 01:26:23;;;;;;;6.93;5.72;;;8.90;99.90;;;;;;5115834;28;20047;-77
2022/04/24 01:28:49;;;;;;;8.27;5.07;;;8.80;99.90;;;;;;5113960;28;20062;-77
2022/04/24 01:31:14;;;;;;;7.53;5.45;;;8.80;99.90;;;;;;5115572;28;20487;-77
2022/04/24 01:33:40;;;;;;;9.23;5.32;;;8.80;99.90;;;;;;5114611;28;20047;-77
2022/04/24 01:36:06;;;;;;;6.65;5.60;;;8.80;99.90;;;;;;5114878;28;20039;-77
2022/04/24 01:38:33;;;;;;;8.75;5.80;;;8.80;99.90;;;;;;5115911;27;20084;-77
2022/04/24 01:40:59;;;;;;;8.50;5.43;;;8.70;99.90;;;;;;5114751;28;20444;-77
2022/04/24 01:43:25;;;;;;;10.20;5.55;;;8.70;99.90;;;;;;5114067;28;20040;-77
2022/04/24 01:45:50;;;;;;;8.63;5.45;;;8.70;99.90;;;;;;5115209;28;20402;-77
2022/04/24 01:48:16;;;;;;;7.38;5.85;;;8.70;99.90;;;;;;5114416;28;20039;-77
2022/04/24 01:50:42;;;;;;;8.40;5.78;;;8.60;99.90;;;;;;5114849;28;20047;-77
2022/04/24 01:53:08;;;;;;;7.47;5.88;;;8.60;99.90;;;;;;5115369;28;20044;-77
2022/04/24 01:55:34;;;;;;;8.90;5.28;;;8.60;99.90;;;;;;5129260;27;20054;-77
2022/04/24 01:58:00;;;;;;;8.88;6.03;;;8.60;99.90;;;;;;5115023;28;20035;-76
2022/04/24 02:00:25;;;;;;;8.25;5.70;;;8.50;99.90;;;;;;5115079;28;20503;-77
2022/04/24 02:02:51;;;;;;;6.47;5.75;;;8.50;99.90;;;;;;5113972;28;20047;-77
2022/04/24 02:05:17;;;;;;;8.32;5.72;;;8.50;99.90;;;;;;5113646;28;20043;-76
2022/04/24 02:07:43;;;;;;;10.82;5.35;;;8.50;99.90;;;;;;5114757;28;20104;-76
2022/04/24 02:10:09;;;;;;;8.65;5.93;;;8.50;99.90;;;;;;5114041;28;20031;-76
2022/04/24 02:12:40;;;;;;;8.02;5.90;;;8.40;99.90;;;;;;5118934;27;20126;-77
2022/04/24 02:15:07;;;;;;;6.50;5.45;;;8.40;99.90;;;;;;5135466;27;20106;-77
2022/04/24 02:17:34;;;;;;;9.60;5.97;;;8.40;99.90;;;;;;5134689;27;20043;-76
2022/04/24 02:20:00;;;;;;;10.32;6.53;;;8.40;99.90;;;;;;5135332;27;20106;-76
2022/04/24 02:22:36;;;;;;;7.22;6.20;;;8.40;99.90;;;;;;5134182;27;20050;-77
2022/04/24 02:25:04;;;;;;;8.27;6.38;;;8.30;99.90;;;;;;5134339;27;20035;-77
2022/04/24 02:27:30;;;;;;;8.10;5.72;;;8.30;99.90;;;;;;5135255;27;20047;-77
2022/04/24 02:29:56;;;;;;;7.28;5.93;;;8.30;99.90;;;;;;5134154;27;20045;-77
2022/04/24 02:32:22;;;;;;;8.80;5.90;;;8.20;99.90;;;;;;5134297;27;20431;-77
2022/04/24 02:34:47;;;;;;;8.20;6.30;;;8.20;99.90;;;;;;5134975;27;20054;-77
2022/04/24 02:37:13;;;;;;;7.20;6.00;;;8.20;99.90;;;;;;5134250;27;20087;-77
2022/04/24 02:39:39;;;;;;;8.60;6.38;;;8.20;99.90;;;;;;5133974;27;20175;-77
2022/04/24 02:42:05;;;;;;;12.68;6.90;;;8.20;99.90;;;;;;5133623;27;20499;-77
2022/04/24 02:44:31;;;;;;;6.60;4.85;;;8.10;99.90;;;;;;5134034;27;20050;-77
2022/04/24 02:46:57;;;;;;;7.45;6.03;;;8.10;99.90;;;;;;5132535;27;20043;-76
2022/04/24 02:49:22;;;;;;;6.80;5.72;;;8.10;99.90;;;;;;5133156;27;20050;-76
2022/04/24 02:51:48;;;;;;;6.72;4.90;;;8.10;99.90;;;;;;5133530;27;20059;-77
2022/04/24 02:54:14;;;;;;;7.05;5.25;;;8.10;99.90;;;;;;5134831;27;20050;-76
2022/04/24 02:56:41;;;;;;;8.35;5.28;;;8.10;99.90;;;;;;5132955;27;20125;-76
2022/04/24 02:59:07;;;;;;;9.15;5.57;;;8.10;99.90;;;;;;5132766;27;20047;-76
2022/04/24 03:01:34;;;;;;;10.55;6.10;;;8.10;99.90;;;;;;5133291;27;20050;-77
2022/04/24 03:04:00;;;;;;;9.40;5.53;;;8.10;99.90;;;;;;5132618;27;20047;-76
2022/04/24 03:06:26;;;;;;;6.43;5.65;;;8.10;99.90;;;;;;5132439;27;20517;-77
2022/04/24 03:08:52;;;;;;;12.75;11.05;;;8.10;99.90;;;;;;5115491;27;20036;-77
2022/04/24 03:11:17;;;;;;;18.60;15.52;;;8.00;99.90;;;;;;5129850;27;20048;-77
2022/04/24 03:13:43;;;;;;;25.73;20.05;;;7.90;99.90;;;;;;5112229;28;20083;-77
2022/04/24 03:16:09;;;;;;;27.60;20.85;;;7.80;99.90;;;;;;5112654;28;20513;-77
2022/04/24 03:18:35;;;;;;;28.58;22.30;;;7.70;99.90;;;;;;5129981;28;20093;-77
2022/04/24 03:21:01;;;;;;;29.75;23.98;;;7.60;99.90;;;;;;5112292;28;20047;-77
2022/04/24 03:23:27;;;;;;;24.88;21.05;;;7.50;99.90;;;;;;5129730;28;20040;-77
2022/04/24 03:25:53;;;;;;;30.55;21.33;;;7.50;99.90;;;;;;5114077;28;20043;-77
2022/04/24 03:28:19;;;;;;;26.08;19.50;;;7.40;99.90;;;;;;5112834;28;20039;-77
2022/04/24 03:30:45;;;;;;;22.85;17.00;;;7.40;99.90;;;;;;5129810;28;20503;-77
2022/04/24 03:33:11;;;;;;;25.63;18.42;;;7.30;99.90;;;;;;5113675;28;20441;-76
2022/04/24 03:35:37;;;;;;;25.05;17.45;;;7.30;99.90;;;;;;5112984;28;20043;-77
2022/04/24 03:38:03;;;;;;;19.17;13.68;;;7.20;99.90;;;;;;5113244;28;20399;-77
2022/04/24 03:40:29;;;;;;;16.80;13.82;;;7.20;99.90;;;;;;5112051;28;20044;-77
2022/04/24 03:42:55;;;;;;;16.63;12.52;;;7.10;99.90;;;;;;5112699;28;20054;-77
2022/04/24 03:45:21;;;;;;;16.33;11.63;;;7.10;99.90;;;;;;5113761;28;20403;-77
2022/04/24 03:47:51;;;;;;;14.38;10.55;;;7.00;99.90;;;;;;5112708;28;20032;-77
2022/04/24 03:50:20;;;;;;;15.43;10.95;;;7.00;99.90;;;;;;5112698;28;20161;-77
2022/04/24 03:52:46;;;;;;;14.65;10.30;;;7.00;99.90;;;;;;5112197;28;20518;-76
2022/04/24 03:55:12;;;;;;;12.70;9.18;;;7.00;99.90;;;;;;5112216;28;20044;-76
2022/04/24 03:57:38;;;;;;;10.68;8.52;;;7.00;99.90;;;;;;5112146;28;20483;-77
2022/04/24 04:00:05;;;;;;;11.35;8.30;;;7.00;99.90;;;;;;5113511;28;20115;-76
2022/04/24 04:02:31;;;;;;;14.55;8.27;;;6.90;99.90;;;;;;5111606;28;20100;-77
2022/04/24 04:04:57;;;;;;;8.52;7.63;;;7.00;99.90;;;;;;5112273;28;20077;-76
2022/04/24 04:07:23;;;;;;;8.25;7.15;;;7.00;99.90;;;;;;5114227;28;20093;-77
2022/04/24 04:09:49;;;;;;;8.23;6.53;;;7.00;99.90;;;;;;5115226;28;20130;-76
2022/04/24 04:12:15;;;;;;;9.32;7.78;;;7.00;99.90;;;;;;5127043;27;20110;-77
2022/04/24 04:14:41;;;;;;;8.32;7.00;;;6.90;99.90;;;;;;5119458;27;20043;-76
2022/04/24 04:17:08;;;;;;;8.93;7.32;;;7.00;99.90;;;;;;5135642;27;20143;-77
2022/04/24 04:19:34;;;;;;;11.43;7.47;;;7.00;99.90;;;;;;5119090;27;20555;-77
2022/04/24 04:22:00;;;;;;;9.02;7.22;;;6.90;99.90;;;;;;5136380;27;20108;-77
2022/04/24 04:24:26;;;;;;;8.70;7.47;;;7.00;99.90;;;;;;5136571;27;20043;-78
2022/04/24 04:26:52;;;;;;;10.73;7.13;;;6.90;99.90;;;;;;5136077;27;20043;-76
2022/04/24 04:29:17;;;;;;;6.88;5.95;;;6.90;99.90;;;;;;5136515;27;20153;-77
2022/04/24 04:31:44;;;;;;;8.57;7.00;;;6.90;99.90;;;;;;5136630;27;20054;-76
2022/04/24 04:34:09;;;;;;;10.93;6.70;;;6.90;99.90;;;;;;5136097;27;20039;-77
2022/04/24 04:36:35;;;;;;;12.05;7.57;;;6.90;99.90;;;;;;5136354;27;20058;-77
2022/04/24 04:39:01;;;;;;;11.45;7.35;;;6.90;99.90;;;;;;5135174;27;20092;-77
2022/04/24 04:41:27;;;;;;;10.40;6.90;;;6.90;99.90;;;;;;5137238;27;20046;-77
2022/04/24 04:43:52;;;;;;;9.35;6.90;;;7.00;99.90;;;;;;5134974;27;20039;-77
2022/04/24 04:46:18;;;;;;;8.18;6.45;;;6.90;99.90;;;;;;5134896;27;20050;-76
2022/04/24 04:48:44;;;;;;;8.68;7.30;;;6.90;99.90;;;;;;5135982;27;20134;-77
2022/04/24 04:51:10;;;;;;;9.70;7.35;;;6.90;99.90;;;;;;5136007;27;20574;-77
2022/04/24 04:53:36;;;;;;;7.65;6.63;;;6.90;99.90;;;;;;5136990;27;20039;-77
2022/04/24 04:56:02;;;;;;;9.05;5.97;;;6.90;99.90;;;;;;5135586;27;20046;-77
2022/04/24 04:58:28;;;;;;;11.75;6.70;;;6.90;99.90;;;;;;5136147;27;20117;-77
2022/04/24 05:00:55;;;;;;;10.88;6.75;;;6.90;99.90;;;;;;5135465;27;20130;-77
2022/04/24 05:03:21;;;;;;;8.82;6.60;;;6.90;99.90;;;;;;5135701;27;20474;-78
2022/04/24 05:05:47;;;;;;;9.70;6.40;;;7.00;99.90;;;;;;5135989;27;20058;-77
2022/04/24 05:08:13;;;;;;;8.68;6.18;;;7.00;99.90;;;;;;5123028;27;20035;-77
2022/04/24 05:10:38;;;;;;;9.73;6.47;;;7.00;99.90;;;;;;5131806;27;20055;-77
2022/04/24 05:13:04;;;;;;;13.82;6.55;;;7.00;99.90;;;;;;5096995;28;20043;-77
2022/04/24 05:15:30;;;;;;;9.40;6.55;;;7.00;99.90;;;;;;5115902;28;20135;-77
2022/04/24 05:17:56;;;;;;;11.52;6.72;;;7.10;99.90;;;;;;5114178;28;20044;-77
2022/04/24 05:20:21;;;;;;;10.23;6.40;;;7.10;99.90;;;;;;5115319;27;20039;-77
2022/04/24 05:22:47;;;;;;;8.30;6.05;;;7.10;99.90;;;;;;5115828;28;20043;-77
2022/04/24 05:25:14;;;;;;;8.18;6.30;;;7.20;99.90;;;;;;5114389;28;20044;-76
2022/04/24 05:27:40;;;;;;;10.13;6.15;;;7.30;99.90;;;;;;5109047;28;20473;-78
2022/04/24 05:30:08;;;;;;;7.85;6.70;;;7.30;99.90;;;;;;5103189;28;20048;-77
2022/04/24 05:32:42;;;;;;;11.50;6.30;;;7.40;99.90;;;;;;5115461;28;20093;-77
2022/04/24 05:35:08;;;;;;;8.52;6.25;;;7.50;99.90;;;;;;5098455;28;20123;-77
2022/04/24 05:37:35;;;;;;;7.85;5.97;;;7.60;99.90;;;;;;5101676;28;20134;-78
2022/04/24 05:40:01;;;;;;;8.95;6.57;;;7.60;99.90;;;;;;5097098;28;20125;-78
2022/04/24 05:42:26;;;;;;;8.15;5.70;;;7.60;99.90;;;;;;5111753;28;20074;-78
2022/04/24 05:44:53;;;;;;;9.60;6.18;;;7.60;99.90;;;;;;5114084;28;20090;-79
2022/04/24 05:47:18;;;;;;;10.77;6.85;;;7.70;99.90;;;;;;5113046;28;20086;-77
2022/04/24 05:49:44;;;;;;;8.77;6.13;;;7.80;99.90;;;;;;5098607;28;20079;-77
2022/04/24 05:52:10;;;;;;;7.97;5.95;;;7.90;99.90;;;;;;5094693;28;20056;-77
2022/04/24 05:54:36;;;;;;;11.63;6.00;;;8.00;99.90;;;;;;5099448;28;20110;-78
2022/04/24 05:57:01;;;;;;;8.43;6.25;;;8.10;99.90;;;;;;5094006;28;20075;-78
2022/04/24 05:59:27;;;;;;;8.40;6.47;;;8.10;99.90;;;;;;5094976;28;20433;-77
2022/04/24 06:01:54;;;;;;;8.90;6.25;;;8.20;99.90;;;;;;5121373;27;20086;-77
2022/04/24 06:04:19;;;;;;;11.98;6.53;;;8.30;99.90;;;;;;5114006;28;20229;-78
2022/04/24 06:06:45;;;;;;;9.38;6.38;;;8.30;99.90;;;;;;5111462;28;20513;-78
2022/04/24 06:09:13;;;;;;;6.53;5.30;;;8.30;99.90;;;;;;5114055;28;20042;-78
2022/04/24 06:11:41;;;;;;;9.95;6.18;;;8.40;99.90;;;;;;5103623;28;20079;-78
2022/04/24 06:14:06;;;;;;;12.23;6.97;;;8.40;99.90;;;;;;5093259;28;20044;-78
2022/04/24 06:16:32;;;;;;;11.27;6.28;;;8.30;99.90;;;;;;5100587;28;20047;-78
2022/04/24 06:18:58;;;;;;;9.68;6.18;;;8.40;99.90;;;;;;5104128;28;20089;-78
2022/04/24 06:21:24;;;;;;;11.35;6.65;;;8.40;99.90;;;;;;5092953;28;20079;-79
2022/04/24 06:23:51;;;;;;;9.80;6.60;;;8.50;99.90;;;;;;5092418;28;20495;-78
2022/04/24 06:26:17;;;;;;;12.73;6.18;;;8.50;99.90;;;;;;5106162;28;20076;-78
2022/04/24 06:28:42;;;;;;;7.90;6.28;;;8.60;99.90;;;;;;5114722;28;20040;-78
2022/04/24 06:31:08;;;;;;;10.70;6.43;;;8.60;99.90;;;;;;5110850;28;20051;-79
2022/04/24 06:33:34;;;;;;;10.00;6.35;;;8.80;99.90;;;;;;5113210;28;20047;-78
2022/04/24 06:36:01;;;;;;;14.05;7.25;;;8.90;99.90;;;;;;5105232;28;20458;-79
2022/04/24 06:38:27;;;;;;;10.35;7.03;;;9.10;99.90;;;;;;5093353;28;20411;-79
2022/04/24 06:40:53;;;;;;;12.82;6.78;;;9.20;99.90;;;;;;5124132;27;20040;-79
2022/04/24 06:43:19;;;;;;;10.13;6.50;;;9.30;99.90;;;;;;5113045;28;20047;-79
2022/04/24 06:45:44;;;;;;;8.32;6.05;;;9.40;99.90;;;;;;5081656;28;20058;-77
2022/04/24 06:48:15;;;;;;;11.02;6.38;;;9.50;99.90;;;;;;5103311;28;20036;-78
2022/04/24 06:50:44;;;;;;;8.68;6.78;;;9.70;99.90;;;;;;5111773;28;20658;-78
2022/04/24 06:53:15;;;;;;;14.40;6.93;;;9.80;99.90;;;;;;5111901;28;20052;-78
2022/04/24 06:55:45;;;;;;;8.93;6.63;;;9.90;99.90;;;;;;5129883;27;20052;-78
2022/04/24 06:58:12;;;;;;;9.68;6.40;;;10.00;99.90;;;;;;5100414;28;20069;-77
2022/04/24 07:00:40;;;;;;;11.40;7.65;;;10.10;99.90;;;;;;5092669;28;20506;-78
2022/04/24 07:03:20;;;;;;;9.20;6.50;;;10.20;99.90;;;;;;5102058;28;20081;-77
2022/04/24 07:05:47;;;;;;;9.10;5.47;;;10.20;99.90;;;;;;5113379;28;20044;-79
2022/04/24 07:08:13;;;;;;;7.20;5.55;;;10.30;99.90;;;;;;5108721;28;20054;-79
2022/04/24 07:10:39;;;;;;;10.30;5.38;;;10.40;99.90;;;;;;5113059;28;20043;-78
2022/04/24 07:13:06;;;;;;;8.38;4.25;;;10.50;99.90;;;;;;5101493;28;20544;-76
2022/04/24 07:15:35;;;;;;;7.53;5.80;;;10.50;99.90;;;;;;5092193;28;20051;-79
2022/04/24 07:18:02;;;;;;;7.78;4.50;;;10.60;99.90;;;;;;5103291;28;20040;-78
2022/04/24 07:20:29;;;;;;;7.72;4.72;;;10.70;99.90;;;;;;5102083;28;20131;-78
2022/04/24 07:23:03;;;;;;;9.25;4.60;;;10.80;99.90;;;;;;5108212;28;20044;-78
2022/04/24 07:25:33;;;;;;;5.93;4.03;;;10.90;99.90;;;;;;5111743;28;20056;-77
2022/04/24 07:27:59;;;;;;;5.80;3.75;;;10.90;99.90;;;;;;5113951;28;20036;-77
2022/04/24 07:30:26;;;;;;;4.57;3.20;;;10.90;99.90;;;;;;5112829;28;20050;-76
2022/04/24 07:32:56;;;;;;;6.68;3.63;;;11.00;99.90;;;;;;5111878;28;20419;-78
2022/04/24 07:35:30;;;;;;;4.43;3.25;;;11.00;99.90;;;;;;5111505;28;20054;-78
2022/04/24 07:37:56;;;;;;;7.00;3.50;;;11.00;99.90;;;;;;5093612;28;20036;-78
2022/04/24 07:40:24;;;;;;;5.93;3.15;;;11.20;99.90;;;;;;5112610;28;20449;-78
2022/04/24 07:43:01;;;;;;;4.75;2.97;;;11.20;99.90;;;;;;5116641;28;20628;-77
2022/04/24 07:45:35;;;;;;;8.07;3.17;;;11.30;99.90;;;;;;5102258;28;20468;-77
2022/04/24 07:48:19;;;;;;;3.63;2.75;;;11.40;99.90;;;;;;5112481;28;20039;-78
2022/04/24 07:50:49;;;;;;;4.72;2.60;;;11.50;99.90;;;;;;5095800;28;20067;-78
2022/04/24 07:53:16;;;;;;;6.68;2.30;;;11.60;99.90;;;;;;5111609;28;20067;-78
2022/04/24 07:55:43;;;;;;;5.68;2.00;;;11.60;99.90;;;;;;5096448;28;20051;-78
2022/04/24 07:58:10;;;;;;;4.30;1.95;;;11.70;99.90;;;;;;5099625;28;20047;-78
2022/04/24 08:00:37;;;;;;;9.93;3.05;;;11.80;99.90;;;;;;5132705;27;20486;-77
2022/04/24 08:03:05;;;;;;;6.05;2.28;;;11.90;99.90;;;;;;5130042;27;20141;-78
2022/04/24 08:05:45;;;;;;;3.30;1.92;;;12.10;99.90;;;;;;5097580;28;20040;-78
2022/04/24 08:08:17;;;;;;;3.50;1.63;;;12.20;99.90;;;;;;5077752;28;20135;-79
2022/04/24 08:10:53;;;;;;;3.17;1.50;;;12.30;99.90;;;;;;5098421;28;20068;-76
2022/04/24 08:13:19;;;;;;;4.30;1.77;;;12.40;99.90;;;;;;5103782;28;20400;-78
2022/04/24 08:15:47;;;;;;;3.63;1.70;;;12.50;99.90;;;;;;5098490;28;20043;-78
2022/04/24 08:18:14;;;;;;;2.85;1.45;;;12.60;99.90;;;;;;5115857;28;20088;-78
2022/04/24 08:20:41;;;;;;;2.70;1.50;;;12.60;99.90;;;;;;5113771;28;20525;-78
2022/04/24 08:23:08;;;;;;;4.32;2.25;;;12.70;99.90;;;;;;5095406;28;20032;-79
2022/04/24 08:25:37;;;;;;;8.48;2.13;;;12.80;99.90;;;;;;5095226;28;20105;-79
2022/04/24 08:28:08;;;;;;;2.72;1.35;;;12.90;99.90;;;;;;5096256;28;20100;-78
2022/04/24 08:30:39;;;;;;;3.22;1.40;;;13.00;99.90;;;;;;5095420;28;20045;-78
2022/04/24 08:33:06;;;;;;;3.03;1.75;;;13.10;99.30;;;;;;5112027;28;20440;-80
2022/04/24 08:35:32;;;;;;;4.72;1.98;;;13.20;99.30;;;;;;5094678;28;20047;-78
2022/04/24 08:37:58;;;;;;;4.18;1.50;;;13.30;99.50;;;;;;5113462;28;20065;-79
2022/04/24 08:40:24;;;;;;;5.10;1.75;;;13.40;98.40;;;;;;5115114;28;20036;-78
2022/04/24 08:42:55;;;;;;;4.93;1.92;;;13.40;98.50;;;;;;5115530;28;20468;-78
2022/04/24 08:45:25;;;;;;;7.13;2.15;;;13.40;98.60;;;;;;5114198;28;20100;-78
2022/04/24 08:47:51;;;;;;;3.70;1.85;;;13.50;98.00;;;;;;5115946;28;20051;-80
2022/04/24 08:50:18;;;;;;;4.53;1.60;;;13.50;98.20;;;;;;5099082;28;20640;-79
2022/04/24 08:52:44;;;;;;;2.88;1.85;;;13.50;98.20;;;;;;5094630;28;20055;-80
2022/04/24 08:55:12;;;;;;;2.88;1.88;;;13.50;98.00;;;;;;5094007;28;20562;-78
2022/04/24 08:57:37;;;;;;;5.00;2.65;;;13.60;98.10;;;;;;5093757;28;20105;-79
2022/04/24 09:00:07;;;;;;;3.88;1.65;;;13.60;98.50;;;;;;5095776;28;20044;-78
2022/04/24 09:02:36;;;;;;;3.13;1.70;;;13.60;98.20;;;;;;5094660;28;20051;-80
2022/04/24 09:05:04;;;;;;;2.63;1.55;;;13.60;97.20;;;;;;5105228;28;20028;-81
2022/04/24 09:07:31;;;;;;;4.32;1.98;;;13.70;97.40;;;;;;5112727;28;20143;-80
2022/04/24 09:09:58;;;;;;;3.03;1.50;;;13.80;97.70;;;;;;5094195;28;20051;-79
2022/04/24 09:12:25;;;;;;;4.70;2.15;;;13.80;97.10;;;;;;5093716;28;20079;-78
2022/04/24 09:14:53;;;;;;;3.13;1.75;;;13.80;97.10;;;;;;5114662;28;20044;-79
2022/04/24 09:17:33;;;;;;;3.45;1.80;;;13.80;97.50;;;;;;5115984;28;20088;-78
2022/04/24 09:20:00;;;;;;;4.63;1.80;;;13.90;97.70;;;;;;5113226;28;20469;-78
2022/04/24 09:22:26;;;;;;;5.03;2.30;;;14.00;96.60;;;;;;5096540;28;20105;-79
2022/04/24 09:24:57;;;;;;;3.78;1.90;;;14.00;96.40;;;;;;5106814;28;20044;-79
2022/04/24 09:27:25;;;;;;;2.97;2.10;;;14.00;95.90;;;;;;5094672;28;20494;-77
2022/04/24 09:29:59;;;;;;;3.25;1.80;;;14.10;95.80;;;;;;5130223;27;20055;-78
2022/04/24 09:32:27;;;;;;;3.75;2.17;;;14.20;96.00;;;;;;5113488;28;20048;-78
2022/04/24 09:34:53;;;;;;;3.05;2.22;;;14.30;95.90;;;;;;5113526;28;20130;-78
2022/04/24 09:37:20;;;;;;;3.25;1.95;;;14.40;96.10;;;;;;5114384;28;20084;-80
2022/04/24 09:39:46;;;;;;;3.40;2.00;;;14.40;95.10;;;;;;5112217;28;20088;-78
2022/04/24 09:42:14;;;;;;;5.25;2.08;;;14.40;94.60;;;;;;5113970;28;20100;-78
2022/04/24 09:44:50;;;;;;;3.90;2.17;;;14.40;94.40;;;;;;5113394;28;20119;-78
2022/04/24 09:47:24;;;;;;;4.85;2.42;;;14.40;94.20;;;;;;5113085;28;20495;-80
2022/04/24 09:49:51;;;;;;;6.35;1.88;;;14.50;94.20;;;;;;5113016;28;20513;-79
2022/04/24 09:52:19;;;;;;;4.50;2.50;;;14.60;95.30;;;;;;5113691;28;20108;-77
2022/04/24 09:54:48;;;;;;;3.58;2.55;;;14.60;95.10;;;;;;5097538;28;20126;-76
2022/04/24 09:57:15;;;;;;;3.33;2.22;;;14.70;95.00;;;;;;5093355;28;20047;-79
2022/04/24 09:59:46;;;;;;;6.13;1.60;;;14.80;94.50;;;;;;5108235;28;20048;-79
2022/04/24 10:02:14;;;;;;;6.18;2.65;;;14.80;94.40;;;;;;5104157;28;20052;-80
2022/04/24 10:04:40;;;;;;;5.10;3.00;;;14.80;94.20;;;;;;5093324;28;20054;-80
2022/04/24 10:07:08;;;;;;;5.40;2.75;;;14.90;94.80;;;;;;5094829;28;20051;-78
2022/04/24 10:09:38;;;;;;;3.95;2.33;;;14.90;93.70;;;;;;5092359;28;20036;-78
2022/04/24 10:12:09;;;;;;;4.78;2.95;;;14.90;93.90;;;;;;5094444;28;20038;-79
2022/04/24 10:15:12;;;;;;;6.13;2.40;;;14.90;94.10;;;;;;5093752;28;20511;-80
2022/04/24 10:17:50;;;;;;;16.95;3.72;;;14.90;94.20;;;;;;5094467;28;20059;-78
2022/04/24 10:20:34;;;;;;;4.22;2.08;;;15.00;94.30;;;;;;5102890;28;20123;-80
2022/04/24 10:23:00;;;;;;;2.97;2.13;;;15.10;94.00;;;;;;5113800;28;20051;-79
2022/04/24 10:25:37;;;;;;;4.00;1.98;;;15.20;94.10;;;;;;5112142;28;20872;-77
2022/04/24 10:28:11;;;;;;;6.07;2.50;;;15.40;93.00;;;;;;5107104;28;20567;-77
2022/04/24 10:30:37;;;;;;;7.13;2.25;;;15.40;91.50;;;;;;5111760;28;20036;-78
2022/04/24 10:33:22;;;;;;;5.47;2.20;;;15.40;92.30;;;;;;5094742;28;20040;-80
2022/04/24 10:35:49;;;;;;;2.63;1.80;;;15.50;91.10;;;;;;5104158;28;20655;-78
2022/04/24 10:38:17;;;;;;;7.60;2.00;;;15.60;90.80;;;;;;5114319;28;20031;-79
2022/04/24 10:41:03;;;;;;;4.35;2.45;;;15.80;91.00;;;;;;5099907;28;20070;-79
2022/04/24 10:43:37;;;;;;;2.20;1.92;;;16.10;90.50;;;;;;5105579;28;20039;-78
2022/04/24 10:46:15;;;;;;;2.53;1.60;;;16.20;89.60;;;;;;5112980;28;20490;-79
2022/04/24 10:48:41;;;;;;;4.88;1.50;;;16.10;88.70;;;;;;5097888;28;20044;-80
2022/04/24 10:51:07;;;;;;;3.92;2.10;;;16.00;89.40;;;;;;5091548;28;20050;-80
2022/04/24 10:53:55;;;;;;;2.95;1.80;;;16.10;90.10;;;;;;5093248;28;20123;-79
2022/04/24 10:56:20;;;;;;;1.98;1.30;;;16.10;89.50;;;;;;5097613;28;20081;-79
2022/04/24 10:58:49;;;;;;;1.75;1.45;;;16.00;88.90;;;;;;5112111;28;20047;-78
2022/04/24 11:01:15;;;;;;;3.70;1.77;;;15.80;89.50;;;;;;5105407;28;20571;-79
2022/04/24 11:03:43;;;;;;;3.92;1.92;;;15.70;89.10;;;;;;5108395;28;20391;-79
2022/04/24 11:06:35;;;;;;;3.08;1.75;;;15.70;90.00;;;;;;5113939;28;20047;-80
2022/04/24 11:09:12;;;;;;;3.65;2.08;;;15.90;88.30;;;;;;5092385;28;20051;-79
2022/04/24 11:11:45;;;;;;;3.17;1.88;;;15.90;87.60;;;;;;5091592;28;20124;-79
2022/04/24 11:14:11;;;;;;;6.03;2.03;;;15.80;87.60;;;;;;5096328;28;20064;-79
2022/04/24 11:16:36;;;;;;;4.57;1.65;;;15.70;86.70;;;;;;5097859;28;20059;-77
2022/04/24 11:19:02;;;;;;;2.38;1.50;;;15.70;86.70;;;;;;5109047;28;20040;-77
2022/04/24 11:21:28;;;;;;;5.15;2.03;;;15.60;85.50;;;;;;5096747;28;20510;-78
2022/04/24 11:24:00;;;;;;;2.25;1.35;;;15.50;85.30;;;;;;5109837;28;20126;-79
2022/04/24 11:26:26;;;;;;;1.85;1.20;;;15.50;86.40;;;;;;5103094;28;20047;-77
2022/04/24 11:28:52;;;;;;;2.42;1.73;;;15.70;85.70;;;;;;5094765;28;20039;-77
2022/04/24 11:31:22;;;;;;;6.05;2.05;;;15.80;85.80;;;;;;5112575;28;20072;-78
2022/04/24 11:33:54;;;;;;;3.50;1.55;;;16.00;88.30;;;;;;5099994;28;20048;-78
2022/04/24 11:36:21;;;;;;;3.03;1.63;;;16.00;83.50;;;;;;5091860;28;20063;-78
2022/04/24 11:38:51;;;;;;;4.82;1.45;;;15.90;84.10;;;;;;5104716;28;20036;-79
2022/04/24 11:41:19;;;;;;;2.30;1.30;;;15.90;84.20;;;;;;5093148;28;20406;-77
2022/04/24 11:43:45;;;;;;;6.05;2.70;;;15.90;90.50;;;;;;5108156;28;20093;-77
2022/04/24 11:50:13;;;;;;;4.75;2.35;;;15.80;91.70;;;;;;5111265;28;20039;-78
2022/04/24 11:51:50;;;;;;;6.93;3.33;;;15.40;91.60;;;;;;5107673;28;20052;-78
2022/04/24 11:54:17;;;;;;;5.10;2.75;;;15.10;93.00;;;;;;5112456;28;20047;-79
2022/04/24 11:56:48;;;;;;;7.50;3.60;;;15.20;93.60;;;;;;5113215;28;20048;-77
2022/04/24 11:59:15;;;;;;;7.13;3.47;;;15.20;94.00;;;;;;5110404;28;20040;-76
2022/04/24 12:01:43;;;;;;;5.05;3.05;;;15.30;94.60;;;;;;5094237;28;20390;-79
2022/04/24 12:04:19;;;;;;;6.28;3.50;;;15.40;95.10;;;;;;5104315;28;20173;-77
2022/04/24 12:06:45;;;;;;;7.47;3.00;;;15.40;94.90;;;;;;5110347;28;20067;-76
2022/04/24 12:09:11;;;;;;;10.23;3.15;;;15.20;95.40;;;;;;5112306;28;20530;-75
2022/04/24 12:11:37;;;;;;;7.60;4.18;;;15.20;96.00;;;;;;5111301;28;20082;-78
2022/04/24 12:14:08;;;;;;;8.90;3.58;;;15.20;96.20;;;;;;5112527;28;20486;-78
2022/04/24 12:16:40;;;;;;;8.60;3.78;;;15.20;96.30;;;;;;5092396;28;20112;-80
2022/04/24 12:19:09;;;;;;;6.80;2.75;;;15.30;96.70;;;;;;5103016;28;20036;-76
2022/04/24 12:21:46;;;;;;;5.30;3.13;;;15.30;96.20;;;;;;5124734;27;20130;-77
2022/04/24 12:24:12;;;;;;;5.32;2.92;;;15.40;95.50;;;;;;5110868;28;20040;-80
2022/04/24 12:26:52;;;;;;;6.07;3.50;;;15.30;95.60;;;;;;5110198;28;20840;-77
2022/04/24 12:29:19;;;;;;;6.28;2.30;;;15.30;96.20;;;;;;5101980;28;20089;-78
2022/04/24 12:31:46;;;;;;;4.00;3.45;;;15.30;96.70;;;;;;5113210;28;20100;-78
2022/04/24 12:34:13;;;;;;;8.00;3.47;;;15.40;96.10;;;;;;5114418;28;20044;-80
2022/04/24 12:36:50;;;;;;;5.95;2.88;;;15.50;96.20;;;;;;5095026;28;20483;-76
2022/04/24 12:39:24;;;;;;;11.57;3.78;;;15.70;95.80;;;;;;5095293;28;20092;-78
2022/04/24 12:41:50;;;;;;;9.53;2.80;;;15.60;95.20;;;;;;5101747;28;20047;-79
2022/04/24 12:44:16;;;;;;;3.67;2.63;;;15.60;95.40;;;;;;5113180;28;20660;-79
2022/04/24 12:46:41;;;;;;;6.03;2.70;;;15.60;95.20;;;;;;5108912;28;20119;-76
2022/04/24 12:49:07;;;;;;;5.53;3.33;;;15.60;95.50;;;;;;5107847;28;20391;-77
2022/04/24 12:51:34;;;;;;;8.70;3.05;;;15.50;95.10;;;;;;5102154;28;20525;-78
2022/04/24 12:54:01;;;;;;;6.75;3.55;;;15.40;95.50;;;;;;5110110;28;20047;-77
2022/04/24 12:56:28;;;;;;;6.63;3.30;;;15.40;95.40;;;;;;5114259;28;20365;-78